createdAt,value
2022-11-08T00:00:25.425Z,156.54
2022-11-08T00:05:25.366Z,156.54
2022-11-08T00:10:25.290Z,156.68
2022-11-08T00:15:25.233Z,156.68
2022-11-08T00:20:25.162Z,156.68
2022-11-08T00:25:25.099Z,155.53
2022-11-08T00:30:25.030Z,155.82
2022-11-08T00:35:24.963Z,155.53
2022-11-08T00:40:24.890Z,154.53
2022-11-08T00:45:24.845Z,156.10
2022-11-08T00:50:24.780Z,156.83
2022-11-08T00:55:24.675Z,156.98
2022-11-08T01:00:24.629Z,157.12
2022-11-08T01:05:43.638Z,157.86
2022-11-08T01:10:36.016Z,159.05
2022-11-08T01:15:36.033Z,159.65
2022-11-08T01:20:35.916Z,160.41
2022-11-08T01:25:35.823Z,161.17
2022-11-08T01:30:35.783Z,161.64
2022-11-08T01:35:35.709Z,161.64
2022-11-08T01:40:35.614Z,162.41
2022-11-08T01:45:35.570Z,162.89
2022-11-08T01:50:35.506Z,164.63
2022-11-08T01:55:35.419Z,164.31
2022-11-08T02:00:35.389Z,164.96
2022-11-08T02:05:35.363Z,164.63
2022-11-08T02:10:35.246Z,165.44
2022-11-08T02:15:35.178Z,165.93
2022-11-08T02:20:35.111Z,168.08
2022-11-08T02:25:35.029Z,167.24
2022-11-08T02:30:34.982Z,168.24
2022-11-08T02:35:34.931Z,167.24
2022-11-08T02:40:34.853Z,167.41
2022-11-08T02:45:34.790Z,168.58
2022-11-08T02:50:34.725Z,169.26
2022-11-08T02:55:34.637Z,168.92
2022-11-08T03:00:34.599Z,169.43
2022-11-08T03:05:34.513Z,169.09
2022-11-08T03:10:34.432Z,170.97
2022-11-08T03:15:34.390Z,170.80
2022-11-08T03:20:34.336Z,171.67
2022-11-08T03:25:34.271Z,172.19
2022-11-08T03:30:34.205Z,171.32
2022-11-08T03:35:34.116Z,172.55
2022-11-08T03:40:34.071Z,172.02
2022-11-08T03:45:34.030Z,172.19
2022-11-08T03:50:33.936Z,172.37
2022-11-08T03:55:33.876Z,172.72
2022-11-08T04:00:33.786Z,172.90
2022-11-08T04:05:33.738Z,173.43
2022-11-08T04:10:33.681Z,173.79
2022-11-08T04:15:33.593Z,174.51
2022-11-08T04:20:33.561Z,175.60
2022-11-08T04:25:35.231Z,176.15
2022-11-08T04:30:33.407Z,177.44
2022-11-08T04:35:33.354Z,178.76
2022-11-08T04:40:33.272Z,179.33
2022-11-08T04:45:33.192Z,179.52
2022-11-08T04:50:33.145Z,178.95
2022-11-08T04:55:33.063Z,178.57
2022-11-08T05:00:32.992Z,177.82
2022-11-08T05:05:32.916Z,177.44
2022-11-08T05:10:32.877Z,177.82
2022-11-08T05:15:47.319Z,177.82
2022-11-08T05:20:39.740Z,178.38
2022-11-08T05:25:39.654Z,179.33
2022-11-08T05:30:39.600Z,180.67
2022-11-08T05:35:39.528Z,181.06
2022-11-08T05:40:39.461Z,181.65
2022-11-08T05:45:39.404Z,183.22
2022-11-08T05:50:39.359Z,183.82
2022-11-08T05:55:39.281Z,184.63
2022-11-08T06:00:39.199Z,185.03
2022-11-08T06:05:39.156Z,185.03
2022-11-08T06:10:40.065Z,185.24
2022-11-08T06:15:39.024Z,186.46
2022-11-08T06:20:38.928Z,186.26
2022-11-08T06:25:38.880Z,185.03
2022-11-08T06:30:38.836Z,186.25
2022-11-08T06:35:38.729Z,186.67
2022-11-08T06:40:38.689Z,186.88
2022-11-08T06:45:38.606Z,185.64
2022-11-08T06:50:38.542Z,184.63
2022-11-08T06:55:38.483Z,183.22
2022-11-08T07:00:38.407Z,181.84
2022-11-08T07:05:38.365Z,181.45
2022-11-08T07:10:38.275Z,182.04
2022-11-08T07:15:38.209Z,180.10
2022-11-08T07:20:38.208Z,178.57
2022-11-08T07:25:38.075Z,178.01
2022-11-08T07:30:38.011Z,176.89
2022-11-08T07:35:37.925Z,175.60
2022-11-08T07:40:37.892Z,174.33
2022-11-08T07:45:37.820Z,170.11
2022-11-08T07:50:37.746Z,168.24
2022-11-08T07:55:37.689Z,169.09
2022-11-08T08:00:37.620Z,167.58
2022-11-08T08:05:37.555Z,167.91
2022-11-08T08:10:37.482Z,167.74
2022-11-08T08:15:37.466Z,163.20
2022-11-08T08:20:37.412Z,157.86
2022-11-08T08:25:37.372Z,155.96
2022-11-08T08:30:37.223Z,155.10
2022-11-08T08:35:37.166Z,153.83
2022-11-08T08:40:37.082Z,151.48
2022-11-08T08:45:37.019Z,150.67
2022-11-08T08:50:36.953Z,151.35
2022-11-08T08:55:36.881Z,151.21
2022-11-08T09:05:37.752Z,148.03
2022-11-08T09:10:36.694Z,144.60
2022-11-08T09:15:36.625Z,140.62
2022-11-08T09:20:36.870Z,137.08
2022-11-08T09:25:36.504Z,130.31
2022-11-08T09:30:36.416Z,126.21
2022-11-08T09:35:36.363Z,122.02
2022-11-08T09:40:36.279Z,118.42
2022-11-08T09:45:36.198Z,115.42
2022-11-08T09:50:36.146Z,115.90
2022-11-08T09:55:36.092Z,115.50
2022-11-08T10:00:36.045Z,118.50
2022-11-08T10:05:35.946Z,121.84
2022-11-08T10:10:36.829Z,122.28
2022-11-08T10:15:35.827Z,123.99
2022-11-08T10:20:35.776Z,125.37
2022-11-08T10:25:35.677Z,127.55
2022-11-08T10:30:35.621Z,127.55
2022-11-08T10:35:35.553Z,129.11
2022-11-08T10:40:35.490Z,129.11
2022-11-08T10:45:35.415Z,129.81
2022-11-08T10:50:35.344Z,131.22
2022-11-08T10:55:35.290Z,131.12
2022-11-08T11:00:35.198Z,130.61
2022-11-08T11:05:35.158Z,130.61
2022-11-08T11:10:35.079Z,131.02
2022-11-08T11:15:35.003Z,130.21
2022-11-08T11:20:34.954Z,128.82
2022-11-08T11:25:34.886Z,129.51
2022-11-08T11:30:34.811Z,127.94
2022-11-08T11:35:34.759Z,127.45
2022-11-08T11:40:34.699Z,126.78
2022-11-08T11:45:34.629Z,126.21
2022-11-08T11:50:34.545Z,124.91
2022-11-08T11:55:34.500Z,124.91
2022-11-08T12:00:34.436Z,126.31
2022-11-08T12:05:34.378Z,126.21
2022-11-08T12:10:34.283Z,128.52
2022-11-08T12:15:34.227Z,129.21
2022-11-08T12:20:34.174Z,132.15
2022-11-08T12:25:34.094Z,133.50
2022-11-08T12:30:34.038Z,135.87
2022-11-08T12:35:33.970Z,138.09
2022-11-08T12:40:33.864Z,140.27
2022-11-08T12:45:33.839Z,140.39
2022-11-08T12:50:33.784Z,141.57
2022-11-08T12:55:33.691Z,141.93
2022-11-08T13:00:33.621Z,141.33
2022-11-08T13:05:33.583Z,142.65
2022-11-08T13:10:33.491Z,144.60
2022-11-08T13:15:33.436Z,142.77
2022-11-08T13:20:33.365Z,145.60
2022-11-08T13:25:33.307Z,144.23
2022-11-08T13:30:33.213Z,143.98
2022-11-08T13:35:33.171Z,143.74
2022-11-08T13:40:33.111Z,142.52
2022-11-08T13:45:33.008Z,143.37
2022-11-08T13:50:32.960Z,143.49
2022-11-08T13:55:32.904Z,142.89
2022-11-08T14:00:32.824Z,142.16
2022-11-08T14:05:32.763Z,141.69
2022-11-08T14:10:32.697Z,141.10
2022-11-08T14:15:32.640Z,140.39
2022-11-08T14:20:32.585Z,139.81
2022-11-08T14:25:32.489Z,138.21
2022-11-08T14:30:32.417Z,139.81
2022-11-08T14:35:32.379Z,139.35
2022-11-08T14:40:32.305Z,137.87
2022-11-08T14:45:32.332Z,138.55
2022-11-08T14:50:32.178Z,138.55
2022-11-08T14:55:32.108Z,138.09
2022-11-08T15:00:32.058Z,137.08
2022-11-08T15:05:31.969Z,137.98
2022-11-08T15:10:31.891Z,139.23
2022-11-08T15:15:31.918Z,140.16
2022-11-08T15:20:31.770Z,139.46
2022-11-08T15:25:31.689Z,139.46
2022-11-08T15:30:31.625Z,138.55
2022-11-08T15:35:31.572Z,138.77
2022-11-08T15:40:31.496Z,138.32
2022-11-08T15:45:31.432Z,138.32
2022-11-08T15:50:31.686Z,137.87
2022-11-08T15:55:31.312Z,137.42
2022-11-08T16:00:31.237Z,138.77
2022-11-08T16:05:31.177Z,137.98
2022-11-08T16:10:31.090Z,140.98
2022-11-08T16:15:31.036Z,139.23
2022-11-08T16:20:30.971Z,142.04
2022-11-08T16:25:30.932Z,141.21
2022-11-08T16:30:30.836Z,143.01
2022-11-08T16:35:30.808Z,143.13
2022-11-08T16:40:30.713Z,144.48
2022-11-08T16:45:58.327Z,145.85
2022-11-08T16:50:31.571Z,144.35
2022-11-08T16:55:30.516Z,144.11
2022-11-08T17:00:30.437Z,145.47
2022-11-08T17:05:30.377Z,146.10
2022-11-08T17:10:30.315Z,146.23
2022-11-08T17:15:30.245Z,144.97
2022-11-08T17:20:30.184Z,146.61
2022-11-08T17:25:30.110Z,147.12
2022-11-08T17:30:30.048Z,147.64
2022-11-08T17:35:29.979Z,147.25
2022-11-08T17:40:29.912Z,146.87
2022-11-08T17:45:29.838Z,148.16
2022-11-08T17:50:29.752Z,146.23
2022-11-08T17:55:29.759Z,146.61
2022-11-08T18:00:29.695Z,148.03
2022-11-08T18:05:29.586Z,146.48
2022-11-08T18:10:29.533Z,146.36
2022-11-08T18:15:29.435Z,147.25
2022-11-08T18:25:29.306Z,146.36
2022-11-08T18:30:29.269Z,146.10
2022-11-08T18:35:29.189Z,147.25
2022-11-08T18:40:29.120Z,146.74
2022-11-08T18:45:29.035Z,147.90
2022-11-08T18:50:28.972Z,147.38
2022-11-08T18:55:28.939Z,148.42
2022-11-08T19:00:28.855Z,147.64
2022-11-08T19:05:28.803Z,146.87
2022-11-08T19:10:28.749Z,146.48
2022-11-08T19:15:28.651Z,146.99
2022-11-08T19:20:28.577Z,146.61
2022-11-08T19:25:28.548Z,146.99
2022-11-08T19:30:28.468Z,146.87
2022-11-08T19:35:28.404Z,145.98
2022-11-08T19:40:32.057Z,145.85
2022-11-08T19:45:28.270Z,145.47
2022-11-08T19:50:28.193Z,144.97
2022-11-08T19:55:28.108Z,144.85
2022-11-08T20:00:28.042Z,145.10
2022-11-08T20:05:27.985Z,144.48
2022-11-08T20:10:27.925Z,145.47
2022-11-08T20:15:27.842Z,147.12
2022-11-08T20:20:27.792Z,149.47
2022-11-08T20:25:27.713Z,149.47
2022-11-08T20:30:27.634Z,149.47
2022-11-08T20:35:27.587Z,147.38
2022-11-08T20:40:27.558Z,147.77
2022-11-08T20:45:27.436Z,147.64
2022-11-08T20:50:27.394Z,148.16
2022-11-08T20:55:27.321Z,149.73
2022-11-08T21:00:52.089Z,150.00
2022-11-08T21:05:28.208Z,148.94
2022-11-08T21:10:42.048Z,147.64
2022-11-08T21:15:28.085Z,146.10
2022-11-08T21:20:26.972Z,145.35
2022-11-08T21:25:26.931Z,145.35
2022-11-08T21:30:26.879Z,146.36
2022-11-08T21:35:26.802Z,146.48
2022-11-08T21:40:26.732Z,146.99
2022-11-08T21:45:26.654Z,146.61
2022-11-08T21:50:26.608Z,146.48
2022-11-08T21:55:26.506Z,146.99
2022-11-08T22:00:26.468Z,147.38
2022-11-08T22:05:26.384Z,148.94
2022-11-08T22:10:26.326Z,149.20
2022-11-08T22:15:26.259Z,147.77
2022-11-08T22:20:26.347Z,148.42
2022-11-08T22:25:26.138Z,147.51
2022-11-08T22:30:26.038Z,145.98
2022-11-08T22:35:26.029Z,146.61
2022-11-08T22:40:25.932Z,147.51
2022-11-08T22:45:25.869Z,147.51
2022-11-08T22:50:25.807Z,148.42
2022-11-08T22:55:25.734Z,148.55
2022-11-08T23:00:25.690Z,149.73
2022-11-08T23:05:25.599Z,150.27
2022-11-08T23:10:25.522Z,150.94
2022-11-08T23:15:25.578Z,151.35
2022-11-08T23:20:25.402Z,152.85
2022-11-08T23:25:25.326Z,150.94
2022-11-08T23:30:25.285Z,152.58
2022-11-08T23:35:25.193Z,151.62
2022-11-08T23:40:25.138Z,151.21
2022-11-08T23:45:25.054Z,149.07
2022-11-08T23:50:24.988Z,148.55
2022-11-08T23:55:24.926Z,147.77
